createdAt,value
2019-05-15T00:01:19.451Z,102267.98
2019-05-15T00:03:46.382Z,102272.62
2019-05-15T00:06:13.417Z,102265.21
2019-05-15T00:08:40.396Z,102261.75
2019-05-15T00:11:08.275Z,102259.53
2019-05-15T00:13:35.452Z,102256.42
2019-05-15T00:16:02.654Z,102252.16
2019-05-15T00:18:29.452Z,102259.41
2019-05-15T00:20:59.438Z,102256.84
2019-05-15T00:23:25.732Z,102260.55
2019-05-15T00:25:52.595Z,102259.61
2019-05-15T00:28:19.407Z,102253.52
2019-05-15T00:30:48.114Z,102257.22
2019-05-15T00:33:15.155Z,102255.33
2019-05-15T00:35:41.905Z,102255.45
2019-05-15T00:38:09.335Z,102260.51
2019-05-15T00:40:39.177Z,102252.55
2019-05-15T00:43:05.295Z,102254.66
2019-05-15T00:45:32.070Z,102252.72
2019-05-15T00:47:58.969Z,102256.83
2019-05-15T00:50:25.828Z,102256.96
2019-05-15T00:52:52.725Z,102258.22
2019-05-15T00:55:19.402Z,102252.46
2019-05-15T00:57:48.539Z,102251.11
2019-05-15T01:00:22.130Z,102239.70
2019-05-15T01:02:49.030Z,102250.88
2019-05-15T01:05:16.097Z,102244.70
2019-05-15T01:07:42.967Z,102246.29
2019-05-15T01:10:10.080Z,102245.73
2019-05-15T01:12:38.036Z,102245.40
2019-05-15T01:15:05.310Z,102239.72
2019-05-15T01:17:32.454Z,102244.52
2019-05-15T01:19:59.862Z,102236.60
2019-05-15T01:22:28.618Z,102240.84
2019-05-15T01:24:55.744Z,102230.70
2019-05-15T01:27:22.549Z,102234.42
2019-05-15T01:29:49.542Z,102226.89
2019-05-15T01:32:18.942Z,102223.34
2019-05-15T01:34:46.078Z,102223.12
2019-05-15T01:37:13.092Z,102221.14
2019-05-15T01:39:39.891Z,102230.41
2019-05-15T01:42:08.361Z,102223.44
2019-05-15T01:44:35.358Z,102218.41
2019-05-15T01:47:02.128Z,102223.56
2019-05-15T01:49:28.918Z,102223.41
2019-05-15T01:51:55.705Z,102222.27
2019-05-15T01:54:22.412Z,102217.66
2019-05-15T01:56:49.701Z,102216.87
2019-05-15T01:59:18.781Z,102215.53
2019-05-15T02:01:48.322Z,102213.20
2019-05-15T02:04:14.543Z,102210.73
2019-05-15T02:06:41.438Z,102205.33
2019-05-15T02:09:08.535Z,102205.29
2019-05-15T02:11:35.539Z,102207.00
2019-05-15T02:14:05.079Z,102196.80
2019-05-15T02:16:31.886Z,102198.95
2019-05-15T02:18:58.663Z,102197.64
2019-05-15T02:21:25.470Z,102196.11
2019-05-15T02:23:52.239Z,102197.39
2019-05-15T02:26:19.149Z,102195.53
2019-05-15T02:28:46.022Z,102188.11
2019-05-15T02:31:12.944Z,102189.56
2019-05-15T02:33:40.425Z,102189.47
2019-05-15T02:36:09.731Z,102179.27
2019-05-15T02:38:40.427Z,102185.78
2019-05-15T02:41:05.125Z,102187.25
2019-05-15T02:43:32.041Z,102180.64
2019-05-15T02:46:00.384Z,102181.32
2019-05-15T02:48:28.990Z,102175.08
2019-05-15T02:50:58.934Z,102181.12
2019-05-15T02:53:26.113Z,102185.28
2019-05-15T02:55:52.880Z,102179.55
2019-05-15T02:58:21.224Z,102182.63
2019-05-15T03:00:53.123Z,102183.47
2019-05-15T03:03:20.134Z,102177.84
2019-05-15T03:05:45.987Z,102186.84
2019-05-15T03:08:14.794Z,102181.27
2019-05-15T03:10:41.708Z,102186.06
2019-05-15T03:13:09.671Z,102178.31
2019-05-15T03:15:40.216Z,102177.89
2019-05-15T03:18:09.187Z,102180.08
2019-05-15T03:20:34.585Z,102182.31
2019-05-15T03:23:01.346Z,102187.30
2019-05-15T03:25:29.765Z,102186.57
2019-05-15T03:27:59.589Z,102183.07
2019-05-15T03:30:25.489Z,102185.73
2019-05-15T03:33:00.780Z,102185.83
2019-05-15T03:35:22.547Z,102181.12
2019-05-15T03:37:49.963Z,102182.30
2019-05-15T03:40:19.388Z,102185.73
2019-05-15T03:42:45.524Z,102185.14
2019-05-15T03:45:12.459Z,102186.16
2019-05-15T03:47:40.059Z,102182.45
2019-05-15T03:50:09.042Z,102182.36
2019-05-15T03:52:39.080Z,102183.01
2019-05-15T03:55:04.853Z,102174.48
2019-05-15T03:57:31.687Z,102176.60
2019-05-15T03:59:59.796Z,102175.44
2019-05-15T04:02:28.782Z,102178.80
2019-05-15T04:05:00.502Z,102176.98
2019-05-15T04:07:25.056Z,102180.68
2019-05-15T04:09:52.034Z,102176.47
2019-05-15T04:12:19.725Z,102173.05
2019-05-15T04:14:50.210Z,102176.36
2019-05-15T04:17:19.811Z,102179.51
2019-05-15T04:19:46.090Z,102178.85
2019-05-15T04:22:12.943Z,102175.25
2019-05-15T04:24:39.982Z,102171.95
2019-05-15T04:27:10.489Z,102170.86
2019-05-15T04:29:35.662Z,102170.05
2019-05-15T04:32:06.024Z,102166.45
2019-05-15T04:34:31.259Z,102170.58
2019-05-15T04:36:58.691Z,102171.46
2019-05-15T04:39:29.408Z,102163.31
2019-05-15T04:41:55.144Z,102164.33
2019-05-15T04:44:22.047Z,102159.14
2019-05-15T04:46:49.857Z,102166.83
2019-05-15T04:49:19.324Z,102163.40
2019-05-15T04:51:45.733Z,102158.89
2019-05-15T04:54:12.525Z,102164.45
2019-05-15T04:56:40.125Z,102158.38
2019-05-15T04:59:19.562Z,102163.58
2019-05-15T05:01:46.487Z,102154.21
2019-05-15T05:04:13.592Z,102159.16
2019-05-15T05:06:40.440Z,102154.52
2019-05-15T05:09:09.191Z,102162.11
2019-05-15T05:11:38.338Z,102161.34
2019-05-15T05:14:05.114Z,102164.58
2019-05-15T05:16:31.887Z,102150.52
2019-05-15T05:18:59.422Z,102154.10
2019-05-15T05:21:27.834Z,102154.10
2019-05-15T05:23:54.763Z,102151.69
2019-05-15T05:26:21.529Z,102153.11
2019-05-15T05:28:49.095Z,102161.87
2019-05-15T05:31:18.848Z,102151.44
2019-05-15T05:33:45.099Z,102154.98
2019-05-15T05:36:11.850Z,102151.61
2019-05-15T05:38:39.029Z,102155.62
2019-05-15T05:41:08.170Z,102155.64
2019-05-15T05:43:38.387Z,102157.08
2019-05-15T05:46:05.101Z,102156.68
2019-05-15T05:48:31.988Z,102166.47
2019-05-15T05:50:58.862Z,102165.60
2019-05-15T05:53:28.520Z,102159.22
2019-05-15T05:55:54.975Z,102160.09
2019-05-15T05:58:21.777Z,102154.09
2019-05-15T06:00:49.545Z,102153.20
2019-05-15T06:03:19.552Z,102154.23
2019-05-15T06:05:45.443Z,102150.81
2019-05-15T06:08:12.357Z,102152.13
2019-05-15T06:10:39.296Z,102150.41
2019-05-15T06:13:08.607Z,102152.75
2019-05-15T06:15:35.036Z,102147.44
2019-05-15T06:18:01.886Z,102151.05
2019-05-15T06:20:28.801Z,102151.05
2019-05-15T06:22:57.906Z,102157.23
2019-05-15T06:25:24.255Z,102152.45
2019-05-15T06:27:51.138Z,102150.70
2019-05-15T06:30:26.532Z,102149.03
2019-05-15T06:33:04.996Z,102152.13
2019-05-15T06:35:19.447Z,102149.03
2019-05-15T06:37:48.431Z,102146.80
2019-05-15T06:40:15.192Z,102149.84
2019-05-15T06:42:42.094Z,102139.66
2019-05-15T06:45:15.169Z,102141.03
2019-05-15T06:47:42.466Z,102142.01
2019-05-15T06:50:09.878Z,102145.06
2019-05-15T06:52:38.094Z,102144.16
2019-05-15T06:55:05.780Z,102149.88
2019-05-15T06:57:32.687Z,102147.27
2019-05-15T06:59:59.551Z,102143.28
2019-05-15T07:02:28.554Z,102138.87
2019-05-15T07:04:55.098Z,102143.27
2019-05-15T07:07:22.069Z,102132.28
2019-05-15T07:09:48.878Z,102130.84
2019-05-15T07:12:15.789Z,102134.66
2019-05-15T07:14:42.611Z,102126.93
2019-05-15T07:17:11.977Z,102125.41
2019-05-15T07:19:40.219Z,102130.17
2019-05-15T07:22:09.264Z,102126.64
2019-05-15T07:24:38.209Z,102119.30
2019-05-15T07:27:04.635Z,102126.05
2019-05-15T07:29:31.398Z,102114.84
2019-05-15T07:31:58.733Z,102117.45
2019-05-15T07:34:25.490Z,102122.55
2019-05-15T07:36:52.395Z,102121.52
2019-05-15T07:39:19.245Z,102118.06
2019-05-15T07:41:48.216Z,102116.53
2019-05-15T07:44:15.344Z,102120.40
2019-05-15T07:46:42.234Z,102114.95
2019-05-15T07:49:09.278Z,102113.45
2019-05-15T07:51:38.132Z,102120.22
2019-05-15T07:54:05.468Z,102118.94
2019-05-15T07:56:32.518Z,102117.39
2019-05-15T07:58:59.670Z,102126.38
2019-05-15T08:01:28.881Z,102124.31
2019-05-15T08:04:09.306Z,102127.67
2019-05-15T08:06:24.843Z,102118.30
2019-05-15T08:08:51.994Z,102121.73
2019-05-15T08:11:24.108Z,102128.12
2019-05-15T08:13:48.718Z,102117.05
2019-05-15T08:16:17.973Z,102116.77
2019-05-15T08:18:44.714Z,102126.13
2019-05-15T08:21:11.575Z,102120.02
2019-05-15T08:23:39.114Z,102114.54
2019-05-15T08:26:08.578Z,102113.55
2019-05-15T08:28:38.063Z,102114.17
2019-05-15T08:31:06.702Z,102116.17
2019-05-15T08:33:32.859Z,102112.22
2019-05-15T08:35:59.715Z,102117.47
2019-05-15T08:38:28.818Z,102113.20
2019-05-15T08:40:55.205Z,102107.48
2019-05-15T08:43:22.123Z,102102.52
2019-05-15T08:45:49.898Z,102103.25
2019-05-15T08:48:18.489Z,102097.03
2019-05-15T08:50:48.380Z,102094.03
2019-05-15T08:53:14.489Z,102092.42
2019-05-15T08:55:41.621Z,102094.80
2019-05-15T08:58:13.676Z,102089.00
2019-05-15T09:00:40.141Z,102084.91
2019-05-15T09:03:08.565Z,102081.09
2019-05-15T09:05:35.254Z,102088.48
2019-05-15T09:08:02.053Z,102076.47
2019-05-15T09:10:29.139Z,102073.31
2019-05-15T09:12:58.513Z,102075.23
2019-05-15T09:15:24.954Z,102073.63
2019-05-15T09:18:07.712Z,102075.73
2019-05-15T09:20:20.424Z,102068.80
2019-05-15T09:22:48.966Z,102062.88
2019-05-15T09:25:19.097Z,102062.00
2019-05-15T09:27:45.228Z,102066.23
2019-05-15T09:30:12.276Z,102058.62
2019-05-15T09:32:39.540Z,102056.34
2019-05-15T09:35:08.353Z,102055.27
2019-05-15T09:37:38.294Z,102047.94
2019-05-15T09:40:04.594Z,102048.00
2019-05-15T09:42:31.485Z,102043.73
2019-05-15T09:44:58.698Z,102044.14
2019-05-15T09:47:29.490Z,102033.02
2019-05-15T09:49:55.752Z,102033.29
2019-05-15T09:52:23.229Z,102032.19
2019-05-15T09:54:50.220Z,102033.67
2019-05-15T09:57:18.774Z,102026.45
2019-05-15T09:59:48.590Z,102026.03
2019-05-15T10:02:14.616Z,102028.49
2019-05-15T10:04:41.434Z,102028.28
2019-05-15T10:07:08.369Z,102025.61
2019-05-15T10:09:35.456Z,102024.27
2019-05-15T10:12:02.304Z,102022.66
2019-05-15T10:14:29.774Z,102012.49
2019-05-15T10:16:58.408Z,102012.38
2019-05-15T10:19:25.387Z,102010.81
2019-05-15T10:21:53.209Z,102008.93
2019-05-15T10:24:20.477Z,102000.15
2019-05-15T10:26:49.095Z,102007.36
2019-05-15T10:29:16.040Z,101994.23
2019-05-15T10:31:42.919Z,101991.46
2019-05-15T10:34:09.709Z,101996.05
2019-05-15T10:36:41.373Z,101989.73
2019-05-15T10:39:08.606Z,101990.97
2019-05-15T10:41:35.544Z,101985.80
2019-05-15T10:44:02.576Z,101974.61
2019-05-15T10:46:29.473Z,101978.28
2019-05-15T10:48:58.575Z,101981.92
2019-05-15T10:51:25.131Z,101980.33
2019-05-15T10:53:55.109Z,101967.98
2019-05-15T10:56:22.318Z,101962.09
2019-05-15T10:58:50.533Z,101968.80
2019-05-15T11:01:19.223Z,101972.94
2019-05-15T11:03:49.239Z,101964.75
2019-05-15T11:06:15.041Z,101960.33
2019-05-15T11:08:41.808Z,101959.16
2019-05-15T11:11:09.298Z,101958.84
2019-05-15T11:13:38.138Z,101958.34
2019-05-15T11:16:05.214Z,101958.25
2019-05-15T11:18:32.791Z,101954.75
2019-05-15T11:21:00.188Z,101948.44
2019-05-15T11:23:29.159Z,101943.32
2019-05-15T11:25:57.989Z,101939.45
2019-05-15T11:28:24.472Z,101945.87
2019-05-15T11:30:52.126Z,101939.49
2019-05-15T11:33:19.365Z,101945.82
2019-05-15T11:35:57.875Z,101950.34
2019-05-15T11:38:19.243Z,101946.70
2019-05-15T11:40:45.717Z,101946.81
2019-05-15T11:43:12.988Z,101942.58
2019-05-15T11:45:39.881Z,101940.27
2019-05-15T11:48:09.020Z,101938.80
2019-05-15T11:50:39.715Z,101934.08
2019-05-15T11:53:05.174Z,101929.08
2019-05-15T11:55:32.371Z,101922.62
2019-05-15T11:57:59.513Z,101922.91
2019-05-15T12:00:29.533Z,101921.51
2019-05-15T12:02:55.100Z,101925.25
2019-05-15T12:05:22.124Z,101923.81
2019-05-15T12:07:48.982Z,101921.58
2019-05-15T12:10:18.441Z,101922.21
2019-05-15T12:12:45.064Z,101914.95
2019-05-15T12:15:12.268Z,101914.77
2019-05-15T12:17:39.339Z,101908.70
2019-05-15T12:20:07.279Z,101906.45
2019-05-15T12:22:35.141Z,101903.34
2019-05-15T12:25:02.152Z,101903.83
2019-05-15T12:27:29.399Z,101901.60
2019-05-15T12:29:59.756Z,101895.03
2019-05-15T12:34:54.116Z,101884.70
2019-05-15T12:37:21.536Z,101888.00
2019-05-15T12:39:49.300Z,101885.48
2019-05-15T13:02:05.251Z,101875.92
2019-05-15T13:04:32.068Z,101876.10
2019-05-15T13:07:12.149Z,101878.09
2019-05-15T13:09:27.848Z,101875.36
2019-05-15T13:11:54.678Z,101872.46
2019-05-15T13:14:21.481Z,101869.14
2019-05-15T13:16:48.228Z,101861.95
2019-05-15T13:19:15.026Z,101870.11
2019-05-15T13:21:41.783Z,101862.31
2019-05-15T13:24:08.769Z,101861.83
2019-05-15T13:26:38.303Z,101851.25
2019-05-15T13:29:04.937Z,101860.83
2019-05-15T13:31:32.593Z,101864.53
2019-05-15T13:33:59.473Z,101861.16
2019-05-15T13:36:28.841Z,101869.39
2019-05-15T13:38:55.157Z,101866.16
2019-05-15T13:41:22.384Z,101858.48
2019-05-15T13:43:49.419Z,101868.39
2019-05-15T13:46:20.437Z,101874.04
2019-05-15T13:48:45.419Z,101868.02
2019-05-15T13:51:12.308Z,101868.21
2019-05-15T13:53:40.312Z,101867.64
2019-05-15T13:56:07.652Z,101867.33
2019-05-15T13:58:34.788Z,101869.11
2019-05-15T14:01:01.775Z,101866.45
2019-05-15T14:03:28.833Z,101862.09
2019-05-15T14:05:58.147Z,101856.77
2019-05-15T14:08:24.697Z,101850.20
2019-05-15T14:10:51.581Z,101857.24
2019-05-15T14:13:18.979Z,101849.67
2019-05-15T14:15:45.850Z,101849.53
2019-05-15T14:18:14.139Z,101845.20
2019-05-15T14:20:51.113Z,101844.13
2019-05-15T14:23:18.574Z,101839.84
2019-05-15T14:25:48.061Z,101835.72
2019-05-15T14:28:14.629Z,101827.23
2019-05-15T14:30:41.403Z,101829.73
2019-05-15T14:33:08.673Z,101825.14
2019-05-15T14:35:37.766Z,101818.70
2019-05-15T14:38:06.824Z,101809.44
2019-05-15T14:40:33.195Z,101813.16
2019-05-15T14:43:00.272Z,101808.59
2019-05-15T14:45:28.037Z,101805.05
2019-05-15T14:47:55.228Z,101795.25
2019-05-15T14:50:21.967Z,101792.00
2019-05-15T14:52:49.173Z,101791.53
2019-05-15T14:55:16.790Z,101785.50
2019-05-15T14:57:43.653Z,101783.75
2019-05-15T15:00:10.671Z,101779.48
2019-05-15T15:02:39.088Z,101778.36
2019-05-15T15:05:08.932Z,101775.43
2019-05-15T15:07:37.982Z,101774.40
2019-05-15T15:10:04.589Z,101773.31
2019-05-15T15:12:31.657Z,101770.38
2019-05-15T15:14:58.415Z,101771.84
2019-05-15T15:17:28.900Z,101767.73
2019-05-15T15:19:59.961Z,101766.21
2019-05-15T15:22:24.632Z,101761.01
2019-05-15T15:24:51.389Z,101754.61
2019-05-15T15:27:19.032Z,101759.38
2019-05-15T15:29:48.166Z,101765.34
2019-05-15T15:32:14.687Z,101768.53
2019-05-15T15:34:41.538Z,101757.64
2019-05-15T15:37:08.506Z,101759.77
2019-05-15T15:39:35.172Z,101755.80
2019-05-15T15:42:01.963Z,101756.34
2019-05-15T15:44:29.181Z,101760.94
2019-05-15T15:46:55.955Z,101762.88
2019-05-15T15:49:23.093Z,101759.55
2019-05-15T15:51:49.852Z,101760.26
2019-05-15T15:54:18.814Z,101752.50
2019-05-15T15:56:48.538Z,101751.70
2019-05-15T15:59:14.856Z,101746.78
2019-05-15T16:01:41.662Z,101743.94
2019-05-15T16:04:08.714Z,101749.92
2019-05-15T16:06:38.554Z,101744.91
2019-05-15T16:09:08.316Z,101731.96
2019-05-15T16:11:38.395Z,101733.64
2019-05-15T16:14:08.967Z,101736.50
2019-05-15T16:16:38.121Z,101735.31
2019-05-15T16:19:05.489Z,101737.36
2019-05-15T16:21:32.843Z,101737.06
2019-05-15T16:24:12.489Z,101731.51
2019-05-15T16:26:29.430Z,101736.06
2019-05-15T16:28:57.993Z,101739.77
2019-05-15T16:31:25.000Z,101735.56
2019-05-15T16:33:51.905Z,101735.09
2019-05-15T16:36:19.595Z,101738.66
2019-05-15T16:38:48.189Z,101726.81
2019-05-15T16:41:15.425Z,101730.59
2019-05-15T16:43:42.840Z,101729.16
2019-05-15T16:46:09.714Z,101726.88
2019-05-15T16:48:38.964Z,101733.02
2019-05-15T16:51:05.493Z,101731.02
2019-05-15T16:53:32.652Z,101727.31
2019-05-15T16:55:59.569Z,101727.28
2019-05-15T16:58:29.522Z,101724.73
2019-05-15T17:00:58.388Z,101727.11
2019-05-15T17:03:25.539Z,101730.41
2019-05-15T17:05:53.509Z,101727.53
2019-05-15T17:08:22.427Z,101733.82
2019-05-15T17:10:49.491Z,101739.30
2019-05-15T17:13:16.963Z,101733.98
2019-05-15T17:15:45.232Z,101741.39
2019-05-15T17:18:12.083Z,101741.58
2019-05-15T17:20:39.343Z,101737.77
2019-05-15T17:23:08.535Z,101741.38
2019-05-15T17:25:38.286Z,101744.50
2019-05-15T17:28:06.105Z,101748.62
2019-05-15T17:30:33.063Z,101764.05
2019-05-15T17:32:59.864Z,101763.69
2019-05-15T17:35:27.778Z,101757.78
2019-05-15T17:37:54.904Z,101757.27
2019-05-15T17:40:22.469Z,101761.77
2019-05-15T17:42:50.203Z,101754.41
2019-05-15T17:45:19.339Z,101755.33
2019-05-15T17:47:48.616Z,101753.42
2019-05-15T17:50:15.787Z,101747.72
2019-05-15T17:52:43.007Z,101752.53
2019-05-15T17:55:10.611Z,101751.77
2019-05-15T17:57:38.859Z,101757.59
2019-05-15T18:00:09.085Z,101754.53
2019-05-15T18:02:37.996Z,101751.23
2019-05-15T18:05:04.646Z,101755.20
2019-05-15T18:07:33.362Z,101755.31
2019-05-15T18:10:00.338Z,101762.49
2019-05-15T18:12:29.231Z,101758.80
2019-05-15T18:14:58.351Z,101767.00
2019-05-15T18:17:25.325Z,101763.16
2019-05-15T18:19:52.236Z,101767.91
2019-05-15T18:22:18.896Z,101767.23
2019-05-15T18:24:48.429Z,101766.78
2019-05-15T18:27:14.819Z,101767.64
2019-05-15T18:29:41.701Z,101765.03
2019-05-15T18:32:08.755Z,101765.13
2019-05-15T18:34:39.438Z,101755.98
2019-05-15T18:37:05.559Z,101755.02
2019-05-15T18:39:32.757Z,101756.05
2019-05-15T18:41:59.690Z,101754.75
2019-05-15T18:44:28.365Z,101751.66
2019-05-15T18:46:55.464Z,101755.23
2019-05-15T18:49:22.536Z,101754.75
2019-05-15T18:51:49.902Z,101753.95
2019-05-15T18:54:18.991Z,101755.25
2019-05-15T18:56:45.827Z,101750.07
2019-05-15T18:59:12.768Z,101755.28
2019-05-15T19:01:40.150Z,101745.68
2019-05-15T19:04:08.764Z,101742.11
2019-05-15T19:06:38.211Z,101742.53
2019-05-15T19:09:08.033Z,101734.63
2019-05-15T19:11:35.395Z,101736.89
2019-05-15T19:14:03.187Z,101742.16
2019-05-15T19:16:31.727Z,101737.33
2019-05-15T19:18:59.610Z,101739.96
2019-05-15T19:21:27.805Z,101739.03
2019-05-15T19:23:54.670Z,101735.16
2019-05-15T19:26:28.818Z,101732.53
2019-05-15T19:28:55.459Z,101736.89
2019-05-15T19:31:27.021Z,101744.79
2019-05-15T19:33:51.649Z,101743.94
2019-05-15T19:36:18.518Z,101733.39
2019-05-15T19:38:47.909Z,101744.81
2019-05-15T19:41:15.382Z,101736.09
2019-05-15T19:43:42.350Z,101735.17
2019-05-15T19:46:09.592Z,101730.39
2019-05-15T19:48:38.630Z,101724.83
2019-05-15T19:51:08.782Z,101720.39
2019-05-15T19:53:35.508Z,101720.38
2019-05-15T19:56:02.681Z,101720.83
2019-05-15T19:58:30.686Z,101714.23
2019-05-15T20:00:58.276Z,101715.13
2019-05-15T20:03:25.096Z,101706.88
2019-05-15T20:05:52.185Z,101706.88
2019-05-15T20:08:19.558Z,101705.57
2019-05-15T20:10:47.923Z,101702.93
2019-05-15T20:13:15.548Z,101705.09
2019-05-15T20:15:43.093Z,101699.53
2019-05-15T20:18:11.156Z,101695.95
2019-05-15T20:20:38.812Z,101698.16
2019-05-15T20:23:08.542Z,101700.71
2019-05-15T20:25:35.212Z,101698.03
2019-05-15T20:28:02.830Z,101693.25
2019-05-15T20:30:29.884Z,101688.97
2019-05-15T20:32:58.542Z,101691.14
2019-05-15T20:35:28.248Z,101686.27
2019-05-15T20:37:54.728Z,101692.02
2019-05-15T20:40:22.019Z,101680.24
2019-05-15T20:42:48.897Z,101680.25
2019-05-15T20:45:18.476Z,101675.71
2019-05-15T20:47:45.255Z,101678.80
2019-05-15T20:50:12.171Z,101680.17
2019-05-15T20:52:39.687Z,101676.31
2019-05-15T20:55:07.983Z,101670.59
2019-05-15T20:57:37.682Z,101665.87
2019-05-15T21:00:04.299Z,101667.55
2019-05-15T21:02:31.114Z,101662.59
2019-05-15T21:04:58.381Z,101657.81
2019-05-15T21:07:35.765Z,101657.46
2019-05-15T21:09:55.415Z,101648.69
2019-05-15T21:12:26.182Z,101648.69
2019-05-15T21:14:51.161Z,101651.31
2019-05-15T21:17:19.837Z,101649.07
2019-05-15T21:19:48.823Z,101649.13
2019-05-15T21:22:17.929Z,101653.02
2019-05-15T21:24:44.241Z,101652.19
2019-05-15T21:27:11.108Z,101648.70
2019-05-15T21:29:38.210Z,101647.02
2019-05-15T21:32:08.417Z,101647.81
2019-05-15T21:34:40.636Z,101642.09
2019-05-15T21:37:05.349Z,101639.02
2019-05-15T21:39:32.493Z,101638.98
2019-05-15T21:41:59.338Z,101631.07
2019-05-15T21:44:26.237Z,101628.45
2019-05-15T21:46:52.897Z,101628.97
2019-05-15T21:49:19.900Z,101625.80
2019-05-15T21:51:47.918Z,101625.02
2019-05-15T21:54:14.980Z,101618.89
2019-05-15T21:56:41.933Z,101617.56
2019-05-15T21:59:08.693Z,101624.59
2019-05-15T22:01:35.629Z,101612.79
2019-05-15T22:04:02.976Z,101611.07
2019-05-15T22:06:29.903Z,101612.30
2019-05-15T22:08:58.328Z,101611.00
2019-05-15T22:11:29.282Z,101608.36
2019-05-15T22:13:54.073Z,101598.34
2019-05-15T22:16:21.217Z,101601.27
2019-05-15T22:18:48.278Z,101596.13
2019-05-15T22:21:15.134Z,101602.65
2019-05-15T22:23:42.027Z,101590.52
2019-05-15T22:26:08.780Z,101587.76
2019-05-15T22:28:35.816Z,101590.43
2019-05-15T22:31:03.848Z,101585.20
2019-05-15T22:33:30.748Z,101576.78
2019-05-15T22:35:59.324Z,101572.04
2019-05-15T22:38:28.403Z,101574.23
2019-05-15T22:40:54.966Z,101570.72
2019-05-15T22:43:21.762Z,101566.39
2019-05-15T22:45:48.823Z,101558.89
2019-05-15T22:48:18.064Z,101561.01
2019-05-15T22:50:44.375Z,101552.31
2019-05-15T22:53:11.173Z,101548.37
2019-05-15T22:55:37.934Z,101541.81
2019-05-15T22:58:05.157Z,101538.79
2019-05-15T23:00:31.913Z,101540.98
2019-05-15T23:02:58.825Z,101534.42
2019-05-15T23:05:29.368Z,101535.86
2019-05-15T23:07:55.604Z,101535.14
2019-05-15T23:10:22.473Z,101531.28
2019-05-15T23:12:49.650Z,101524.83
2019-05-15T23:15:18.722Z,101528.39
2019-05-15T23:17:45.424Z,101521.95
2019-05-15T23:20:12.706Z,101520.30
2019-05-15T23:22:39.458Z,101518.59
2019-05-15T23:25:06.512Z,101507.70
2019-05-15T23:27:33.293Z,101506.39
2019-05-15T23:30:00.326Z,101502.89
2019-05-15T23:32:28.926Z,101500.74
2019-05-15T23:34:58.264Z,101507.34
2019-05-15T23:37:24.707Z,101504.25
2019-05-15T23:39:51.588Z,101495.97
2019-05-15T23:42:18.629Z,101492.47
2019-05-15T23:44:46.152Z,101495.57
2019-05-15T23:47:12.963Z,101488.14
2019-05-15T23:49:39.805Z,101489.92
2019-05-15T23:52:08.726Z,101485.55
2019-05-15T23:54:35.376Z,101476.37
2019-05-15T23:57:02.198Z,101468.50
2019-05-15T23:59:28.947Z,101461.94
